Time;durP1;ratioP1;P1;durP2;ratioP2;P2;SDS_P1;SDS_P2;PMS_P1;PMS_P2;Temp;Humidity;BMP_temperature;BMP_pressure;BME280_temperature;BME280_humidity;BME280_pressure;Samples;Min_cycle;Max_cycle;Signal;HPM_P1;HPM_P2
2021/06/28 00:01:44;;;;;;;9.63;8.63;;;21.80;92.40;;;;;;5079674;28;20509;-79
2021/06/28 00:04:11;;;;;;;9.40;8.50;;;21.80;91.90;;;;;;5081050;28;20513;-80
2021/06/28 00:06:38;;;;;;;8.23;7.53;;;21.80;91.70;;;;;;5095417;28;20466;-76
2021/06/28 00:09:05;;;;;;;8.50;7.73;;;21.80;91.60;;;;;;5099579;28;20439;-79
2021/06/28 00:11:32;;;;;;;8.30;7.47;;;21.90;91.40;;;;;;5082122;28;20433;-78
2021/06/28 00:14:01;;;;;;;9.03;8.23;;;21.80;91.30;;;;;;5083545;28;20457;-79
2021/06/28 00:16:27;;;;;;;8.63;7.77;;;21.90;90.90;;;;;;5081415;28;20493;-79
2021/06/28 00:18:55;;;;;;;8.30;7.70;;;21.90;90.70;;;;;;5077472;28;20562;-78
2021/06/28 00:21:22;;;;;;;7.80;7.03;;;22.00;89.90;;;;;;5075850;28;20550;-78
2021/06/28 00:23:49;;;;;;;7.77;7.17;;;22.00;89.20;;;;;;5074951;28;20574;-78
2021/06/28 00:26:16;;;;;;;8.93;8.13;;;21.90;89.00;;;;;;5075316;28;20562;-78
2021/06/28 00:28:43;;;;;;;7.73;7.13;;;21.90;88.80;;;;;;5077394;28;20507;-78
2021/06/28 00:31:11;;;;;;;9.03;8.23;;;22.00;89.10;;;;;;5076708;28;20486;-78
2021/06/28 00:33:38;;;;;;;8.03;7.43;;;22.00;88.80;;;;;;5076930;28;20540;-77
2021/06/28 00:36:06;;;;;;;7.20;6.60;;;21.90;88.20;;;;;;5076750;28;20467;-78
2021/06/28 00:38:33;;;;;;;6.70;6.10;;;21.90;84.90;;;;;;5078771;28;20451;-78
2021/06/28 00:40:59;;;;;;;5.87;5.40;;;21.90;81.20;;;;;;5087294;28;20470;-78
2021/06/28 00:43:26;;;;;;;6.70;6.10;;;21.90;79.10;;;;;;5081240;28;20484;-78
2021/06/28 00:45:53;;;;;;;7.33;5.87;;;21.90;80.00;;;;;;5089006;28;20465;-78
2021/06/28 00:48:21;;;;;;;7.00;6.33;;;21.90;80.70;;;;;;5080047;28;20544;-78
2021/06/28 00:50:50;;;;;;;6.60;6.00;;;21.90;81.40;;;;;;5073654;28;20436;-78
2021/06/28 00:53:19;;;;;;;7.93;7.13;;;21.90;81.40;;;;;;5075534;28;20526;-78
2021/06/28 00:55:47;;;;;;;7.07;6.47;;;21.90;83.40;;;;;;5075140;28;20465;-78
2021/06/28 00:58:14;;;;;;;8.50;7.70;;;21.90;83.40;;;;;;5075752;28;20826;-78
2021/06/28 01:00:42;;;;;;;8.17;7.47;;;22.00;83.90;;;;;;5077356;28;20947;-78
2021/06/28 01:03:09;;;;;;;8.07;7.37;;;21.90;84.90;;;;;;5075891;28;20527;-78
2021/06/28 01:05:40;;;;;;;8.27;7.67;;;21.90;85.70;;;;;;5078636;28;20986;-78
2021/06/28 01:08:07;;;;;;;7.90;7.30;;;21.80;87.00;;;;;;5077295;28;21071;-77
2021/06/28 01:10:37;;;;;;;7.80;7.20;;;21.80;87.00;;;;;;5076916;28;20492;-78
2021/06/28 01:13:04;;;;;;;8.60;7.63;;;21.80;88.30;;;;;;5076822;28;20429;-78
2021/06/28 01:15:31;;;;;;;9.60;8.10;;;21.70;89.10;;;;;;5074248;28;20435;-77
2021/06/28 01:17:59;;;;;;;8.00;7.40;;;21.70;90.10;;;;;;5073968;28;20976;-77
2021/06/28 01:20:28;;;;;;;8.97;8.13;;;21.70;90.50;;;;;;5074277;28;20503;-78
2021/06/28 01:22:58;;;;;;;8.90;8.10;;;21.60;91.40;;;;;;5073942;28;20525;-78
2021/06/28 01:25:29;;;;;;;8.63;7.83;;;21.50;91.60;;;;;;5074090;28;20412;-78
2021/06/28 01:27:56;;;;;;;10.93;8.10;;;21.50;92.10;;;;;;5074179;28;20844;-78
2021/06/28 01:30:26;;;;;;;7.80;7.20;;;21.50;92.30;;;;;;5073807;28;20452;-78
2021/06/28 01:32:54;;;;;;;9.40;8.27;;;21.50;92.30;;;;;;5074038;28;20434;-78
2021/06/28 01:35:21;;;;;;;9.03;8.23;;;21.50;92.30;;;;;;5074023;28;20943;-78
2021/06/28 01:37:48;;;;;;;8.93;7.67;;;21.50;92.30;;;;;;5073944;28;20538;-78
2021/06/28 01:40:17;;;;;;;9.33;8.53;;;21.50;92.30;;;;;;5073695;28;20547;-78
2021/06/28 01:42:46;;;;;;;7.77;7.07;;;21.50;92.30;;;;;;5073482;28;20531;-78
2021/06/28 01:45:17;;;;;;;8.00;7.30;;;21.50;92.30;;;;;;5073636;28;20494;-77
2021/06/28 01:47:44;;;;;;;9.70;7.70;;;21.40;92.30;;;;;;5073591;28;20551;-78
2021/06/28 01:50:14;;;;;;;9.07;8.17;;;21.40;92.30;;;;;;5073726;28;20426;-78
2021/06/28 01:52:42;;;;;;;7.70;7.10;;;21.40;92.30;;;;;;5073412;28;20480;-78
2021/06/28 01:55:11;;;;;;;8.53;7.83;;;21.30;92.20;;;;;;5073392;28;21125;-78
2021/06/28 01:57:42;;;;;;;8.00;7.30;;;21.30;92.20;;;;;;5073484;28;20466;-78
2021/06/28 02:00:14;;;;;;;7.83;7.23;;;21.30;92.20;;;;;;5073425;28;20467;-78
2021/06/28 02:02:41;;;;;;;8.03;7.33;;;21.30;92.20;;;;;;5073312;28;20864;-79
2021/06/28 02:05:09;;;;;;;7.83;7.20;;;21.40;92.30;;;;;;5092334;28;20434;-79
2021/06/28 02:07:36;;;;;;;8.47;7.67;;;21.40;91.60;;;;;;5096595;28;20472;-80
2021/06/28 02:10:04;;;;;;;7.50;6.70;;;21.40;91.30;;;;;;5096056;28;20457;-79
2021/06/28 02:12:31;;;;;;;6.97;6.37;;;21.40;90.90;;;;;;5081860;28;20545;-77
2021/06/28 02:14:58;;;;;;;8.10;7.40;;;21.40;91.10;;;;;;5085714;28;20448;-76
2021/06/28 02:17:26;;;;;;;7.63;7.03;;;21.30;91.10;;;;;;5087292;28;20987;-76
2021/06/28 02:19:53;;;;;;;7.97;7.17;;;21.30;91.20;;;;;;5074821;28;20503;-77
2021/06/28 02:22:20;;;;;;;8.27;7.57;;;21.30;91.40;;;;;;5072980;28;20429;-77
2021/06/28 02:24:47;;;;;;;9.60;6.63;;;21.30;91.50;;;;;;5073280;28;20540;-78
2021/06/28 02:27:14;;;;;;;7.67;7.07;;;21.30;90.90;;;;;;5073204;28;20534;-78
2021/06/28 02:29:41;;;;;;;7.47;6.87;;;21.30;91.10;;;;;;5072974;28;20847;-78
2021/06/28 02:32:08;;;;;;;8.20;7.40;;;21.30;91.00;;;;;;5073003;28;20439;-78
2021/06/28 02:34:36;;;;;;;8.53;7.83;;;21.30;91.10;;;;;;5072666;28;20534;-78
2021/06/28 02:37:04;;;;;;;7.67;7.07;;;21.30;91.00;;;;;;5073216;28;20452;-78
2021/06/28 02:39:31;;;;;;;12.30;7.50;;;21.30;91.00;;;;;;5073430;28;20474;-77
2021/06/28 02:41:58;;;;;;;7.10;6.50;;;21.20;90.80;;;;;;5075377;28;20577;-77
2021/06/28 02:44:25;;;;;;;7.73;6.90;;;21.20;91.10;;;;;;5095899;28;20446;-78
2021/06/28 02:46:52;;;;;;;6.90;6.30;;;21.20;90.60;;;;;;5097464;28;20432;-77
2021/06/28 02:49:19;;;;;;;7.10;6.50;;;21.20;90.30;;;;;;5097815;28;20427;-78
2021/06/28 02:51:47;;;;;;;7.43;6.83;;;21.10;90.30;;;;;;5096523;28;20431;-78
2021/06/28 02:54:14;;;;;;;6.30;5.90;;;21.10;90.70;;;;;;5093293;28;20457;-78
2021/06/28 02:56:41;;;;;;;7.20;6.50;;;21.00;90.50;;;;;;5082096;28;20438;-78
2021/06/28 02:59:11;;;;;;;6.57;5.93;;;20.90;90.50;;;;;;5089433;28;20453;-79
2021/06/28 03:01:38;;;;;;;5.80;5.20;;;20.90;90.60;;;;;;5081663;28;20424;-79
2021/06/28 03:04:05;;;;;;;6.40;5.80;;;20.90;90.20;;;;;;5088897;28;20502;-78
2021/06/28 03:06:32;;;;;;;6.40;5.80;;;20.90;90.00;;;;;;5081641;28;20419;-78
2021/06/28 03:09:00;;;;;;;6.60;6.00;;;20.90;89.50;;;;;;5073184;28;21028;-78
2021/06/28 03:11:27;;;;;;;6.57;5.97;;;20.90;89.40;;;;;;5072891;28;20986;-78
2021/06/28 03:13:54;;;;;;;6.30;5.80;;;20.90;89.00;;;;;;5074865;28;21000;-78
2021/06/28 03:16:21;;;;;;;6.00;5.50;;;20.90;88.60;;;;;;5077334;28;20468;-78
2021/06/28 03:18:48;;;;;;;5.80;5.30;;;21.00;87.80;;;;;;5077516;28;20455;-78
2021/06/28 03:21:15;;;;;;;5.73;5.33;;;20.90;87.80;;;;;;5079721;28;20471;-78
2021/06/28 03:23:43;;;;;;;6.00;5.40;;;20.90;88.10;;;;;;5094145;28;20473;-79
2021/06/28 03:26:13;;;;;;;5.60;5.20;;;20.90;88.30;;;;;;5101522;28;20444;-79
2021/06/28 03:28:40;;;;;;;5.80;5.20;;;21.00;88.50;;;;;;5101600;28;20490;-79
2021/06/28 03:31:08;;;;;;;8.27;5.70;;;21.00;87.30;;;;;;5101631;28;20440;-78
2021/06/28 03:33:36;;;;;;;6.63;5.60;;;20.90;87.40;;;;;;5086705;28;20455;-78
2021/06/28 03:36:03;;;;;;;6.37;5.87;;;21.00;87.20;;;;;;5079214;28;20997;-78
2021/06/28 03:38:30;;;;;;;6.23;5.73;;;20.90;87.10;;;;;;5085687;28;20467;-79
2021/06/28 03:40:57;;;;;;;7.03;6.33;;;20.80;87.60;;;;;;5101210;28;20444;-78
2021/06/28 03:43:26;;;;;;;7.40;6.70;;;20.70;89.00;;;;;;5100984;28;20491;-79
2021/06/28 03:45:52;;;;;;;6.27;5.67;;;20.60;90.00;;;;;;5100744;28;20449;-79
2021/06/28 03:48:19;;;;;;;6.63;6.10;;;20.70;90.20;;;;;;5099860;28;20505;-78
2021/06/28 03:50:48;;;;;;;6.17;5.60;;;20.70;89.60;;;;;;5077763;28;20929;-78
2021/06/28 03:53:15;;;;;;;5.87;5.47;;;20.70;89.90;;;;;;5075739;28;20487;-78
2021/06/28 03:55:42;;;;;;;7.00;6.23;;;20.70;90.00;;;;;;5076204;28;20475;-78
2021/06/28 03:58:08;;;;;;;6.27;5.77;;;20.70;90.10;;;;;;5084230;28;20489;-78
2021/06/28 04:00:37;;;;;;;5.93;5.47;;;20.70;89.60;;;;;;5076632;28;20771;-77
2021/06/28 04:03:06;;;;;;;6.83;6.23;;;20.80;89.50;;;;;;5075754;28;20848;-77
2021/06/28 04:05:33;;;;;;;6.30;5.80;;;20.80;89.70;;;;;;5076556;28;20498;-78
2021/06/28 04:08:00;;;;;;;6.63;5.70;;;20.80;89.80;;;;;;5076724;28;20839;-78
2021/06/28 04:10:27;;;;;;;6.50;5.90;;;20.80;89.80;;;;;;5076127;28;20946;-78
2021/06/28 04:12:55;;;;;;;6.50;5.90;;;20.80;89.70;;;;;;5075548;28;20542;-78
2021/06/28 04:15:22;;;;;;;7.13;6.47;;;20.80;89.00;;;;;;5075541;28;20455;-78
2021/06/28 04:17:54;;;;;;;6.70;5.37;;;20.80;88.90;;;;;;5076042;28;20538;-78
2021/06/28 04:20:23;;;;;;;6.20;5.70;;;20.80;89.50;;;;;;5079260;28;20901;-78
2021/06/28 04:22:51;;;;;;;6.23;5.63;;;20.80;89.90;;;;;;5078374;28;20452;-78
2021/06/28 04:25:20;;;;;;;5.90;5.30;;;20.70;90.10;;;;;;5077255;28;20467;-78
2021/06/28 04:27:47;;;;;;;10.00;6.47;;;20.60;90.80;;;;;;5080055;28;21011;-78
2021/06/28 04:30:17;;;;;;;6.90;6.30;;;20.70;90.80;;;;;;5077683;28;20506;-78
2021/06/28 04:32:44;;;;;;;6.57;5.73;;;20.80;90.60;;;;;;5079189;28;20875;-79
2021/06/28 04:35:16;;;;;;;6.70;6.10;;;20.80;90.60;;;;;;5085747;28;20826;-78
2021/06/28 04:37:43;;;;;;;5.97;5.47;;;20.80;90.00;;;;;;5093058;28;20441;-80
2021/06/28 04:40:13;;;;;;;7.47;6.07;;;20.90;90.00;;;;;;5099936;28;20433;-80
2021/06/28 04:42:40;;;;;;;7.33;5.20;;;21.00;89.60;;;;;;5081833;28;20540;-79
2021/06/28 04:45:08;;;;;;;5.93;5.53;;;21.00;88.90;;;;;;5075988;28;20495;-78
2021/06/28 04:47:35;;;;;;;8.53;6.20;;;21.10;88.10;;;;;;5075221;28;20978;-77
2021/06/28 04:50:03;;;;;;;6.60;6.10;;;21.20;88.00;;;;;;5075100;28;20501;-77
2021/06/28 04:52:33;;;;;;;9.40;5.70;;;21.20;86.50;;;;;;5074946;28;20441;-78
2021/06/28 04:55:00;;;;;;;6.73;6.13;;;21.30;86.60;;;;;;5076562;28;20428;-80
2021/06/28 04:57:27;;;;;;;6.03;5.47;;;21.30;86.60;;;;;;5076678;28;20537;-78
2021/06/28 04:59:54;;;;;;;6.90;5.73;;;21.30;86.30;;;;;;5075271;28;20538;-78
2021/06/28 05:02:21;;;;;;;6.93;5.60;;;21.30;85.40;;;;;;5075660;28;20452;-78
2021/06/28 05:04:48;;;;;;;6.27;5.67;;;21.40;83.90;;;;;;5076785;28;20534;-78
2021/06/28 05:07:15;;;;;;;6.93;5.93;;;21.40;82.90;;;;;;5076906;28;20482;-77
2021/06/28 05:09:44;;;;;;;5.87;5.40;;;21.50;82.50;;;;;;5077430;28;20493;-78
2021/06/28 05:12:13;;;;;;;5.70;5.17;;;21.60;81.20;;;;;;5077313;28;20513;-78
2021/06/28 05:14:40;;;;;;;5.17;4.77;;;22.00;80.10;;;;;;5078463;28;20961;-77
2021/06/28 05:17:07;;;;;;;5.10;4.70;;;23.00;73.70;;;;;;5079851;28;20422;-78
2021/06/28 05:19:34;;;;;;;6.33;4.43;;;24.30;65.00;;;;;;5087867;28;20426;-79
2021/06/28 05:22:02;;;;;;;5.73;4.63;;;25.10;57.90;;;;;;5081968;28;20490;-76
2021/06/28 05:24:29;;;;;;;7.17;3.73;;;25.90;54.20;;;;;;5088315;28;20543;-78
2021/06/28 05:26:57;;;;;;;4.93;4.53;;;26.80;50.90;;;;;;5078338;28;20491;-79
2021/06/28 05:29:24;;;;;;;5.20;4.40;;;27.50;47.50;;;;;;5074848;28;20460;-79
2021/06/28 05:31:51;;;;;;;4.40;4.00;;;27.60;46.30;;;;;;5075046;28;20431;-79
2021/06/28 05:34:18;;;;;;;3.57;3.30;;;28.20;44.60;;;;;;5074636;28;20529;-78
2021/06/28 05:36:45;;;;;;;5.20;3.80;;;29.30;43.20;;;;;;5085338;28;20896;-78
2021/06/28 05:39:12;;;;;;;3.40;3.17;;;29.90;38.90;;;;;;5085702;28;20441;-77
2021/06/28 05:41:39;;;;;;;5.40;3.00;;;29.70;37.20;;;;;;5076510;28;20877;-78
2021/06/28 05:44:07;;;;;;;3.97;3.47;;;29.80;36.50;;;;;;5074045;28;20877;-78
2021/06/28 05:46:34;;;;;;;6.67;3.03;;;30.00;36.70;;;;;;5074675;28;20479;-78
2021/06/28 05:49:01;;;;;;;4.60;3.00;;;30.20;36.90;;;;;;5074616;28;20482;-78
2021/06/28 05:51:28;;;;;;;2.93;2.73;;;30.60;34.70;;;;;;5073992;28;20460;-78
2021/06/28 05:53:55;;;;;;;3.70;2.90;;;30.50;33.40;;;;;;5074186;28;20432;-79
2021/06/28 05:56:22;;;;;;;3.13;2.83;;;29.90;35.00;;;;;;5074701;28;20924;-78
2021/06/28 05:58:49;;;;;;;4.80;3.60;;;29.20;36.10;;;;;;5074985;28;20565;-78
2021/06/28 06:01:18;;;;;;;2.67;2.47;;;28.40;38.40;;;;;;5073639;28;20546;-79
2021/06/28 06:03:45;;;;;;;5.33;2.43;;;27.60;39.30;;;;;;5050399;28;20500;-78
2021/06/28 06:06:12;;;;;;;2.53;2.43;;;27.30;40.30;;;;;;5051371;28;20659;-78
2021/06/28 06:08:39;;;;;;;3.80;2.97;;;27.80;39.60;;;;;;5050085;28;20478;-77
2021/06/28 06:11:08;;;;;;;2.40;2.20;;;28.30;38.10;;;;;;5054529;28;20486;-78
2021/06/28 06:13:35;;;;;;;2.70;2.50;;;28.80;36.00;;;;;;5035581;28;20473;-79
2021/06/28 06:16:02;;;;;;;2.53;2.40;;;29.30;36.20;;;;;;5035925;28;20478;-78
2021/06/28 06:18:30;;;;;;;3.07;2.27;;;29.80;34.80;;;;;;5034271;28;20663;-76
2021/06/28 06:20:57;;;;;;;4.50;2.33;;;29.70;33.90;;;;;;5033565;28;20689;-76
2021/06/28 06:23:25;;;;;;;3.00;2.53;;;29.60;34.60;;;;;;5033565;28;20459;-77
2021/06/28 06:25:52;;;;;;;4.60;2.43;;;29.70;34.10;;;;;;5034685;28;20747;-74
2021/06/28 06:28:18;;;;;;;2.47;2.27;;;29.50;34.20;;;;;;5033885;28;20481;-75
2021/06/28 06:30:45;;;;;;;2.70;2.50;;;29.40;34.40;;;;;;5051444;28;20948;-75
2021/06/28 06:33:12;;;;;;;3.70;2.43;;;29.30;35.10;;;;;;5052539;28;20471;-75
2021/06/28 06:35:41;;;;;;;2.30;1.93;;;29.00;35.30;;;;;;5052740;28;20493;-74
2021/06/28 06:38:08;;;;;;;3.63;2.40;;;28.70;34.70;;;;;;5052769;28;20513;-74
2021/06/28 06:40:35;;;;;;;2.77;2.37;;;28.40;35.60;;;;;;5052857;28;20460;-75
2021/06/28 06:43:02;;;;;;;4.00;2.60;;;28.30;35.50;;;;;;5052300;28;20486;-75
2021/06/28 06:45:29;;;;;;;4.73;1.97;;;28.80;35.80;;;;;;5054140;28;20584;-75
2021/06/28 06:47:56;;;;;;;2.30;2.10;;;29.70;33.00;;;;;;5055721;28;20506;-74
2021/06/28 06:50:23;;;;;;;2.30;2.13;;;29.90;32.30;;;;;;5054473;28;20449;-76
2021/06/28 06:52:52;;;;;;;3.27;2.43;;;30.20;31.80;;;;;;5052188;28;20543;-75
2021/06/28 06:55:20;;;;;;;3.00;1.97;;;30.30;31.50;;;;;;5071585;28;20538;-74
2021/06/28 06:57:48;;;;;;;2.07;1.97;;;29.50;31.50;;;;;;5072447;28;20456;-76
2021/06/28 07:00:17;;;;;;;3.13;2.30;;;28.10;34.80;;;;;;5073681;28;20430;-75
2021/06/28 07:02:44;;;;;;;2.27;2.17;;;27.40;37.00;;;;;;5071388;28;20476;-75
2021/06/28 07:05:13;;;;;;;2.70;2.47;;;27.30;37.30;;;;;;5072235;28;20867;-76
2021/06/28 07:07:41;;;;;;;4.40;2.60;;;27.60;36.70;;;;;;5071198;28;20434;-77
2021/06/28 07:10:11;;;;;;;3.13;2.30;;;27.80;36.30;;;;;;5039939;28;20445;-78
2021/06/28 07:12:39;;;;;;;5.30;2.60;;;27.90;36.70;;;;;;5064602;28;20473;-78
2021/06/28 07:15:08;;;;;;;3.93;2.90;;;27.30;37.50;;;;;;5073621;28;20457;-79
2021/06/28 07:17:35;;;;;;;3.70;2.80;;;26.90;38.30;;;;;;5073531;28;20860;-80
2021/06/28 07:20:02;;;;;;;2.80;2.60;;;26.70;39.20;;;;;;5072894;28;20473;-79
2021/06/28 07:22:29;;;;;;;2.70;2.50;;;26.60;40.00;;;;;;5073571;28;20486;-79
2021/06/28 07:24:56;;;;;;;3.00;2.90;;;26.50;39.70;;;;;;5073316;28;21132;-77
2021/06/28 07:27:24;;;;;;;4.40;2.20;;;26.30;40.20;;;;;;5074732;28;20447;-77
2021/06/28 07:29:51;;;;;;;2.90;2.60;;;26.20;40.90;;;;;;5075754;28;20485;-77
2021/06/28 07:32:18;;;;;;;2.73;2.53;;;26.50;40.30;;;;;;5074292;28;20426;-77
2021/06/28 07:34:45;;;;;;;4.13;2.80;;;26.60;40.20;;;;;;5073145;28;21005;-79
2021/06/28 07:37:12;;;;;;;3.13;2.80;;;26.70;40.30;;;;;;5084067;28;20461;-77
2021/06/28 07:39:39;;;;;;;3.27;2.97;;;26.80;40.20;;;;;;5088021;28;20483;-76
2021/06/28 07:42:06;;;;;;;2.73;2.60;;;26.60;40.20;;;;;;5095654;28;20439;-79
2021/06/28 07:44:35;;;;;;;5.17;2.87;;;26.40;40.80;;;;;;5096955;28;20487;-77
2021/06/28 07:47:02;;;;;;;3.03;2.83;;;26.00;42.00;;;;;;5073766;28;20876;-78
2021/06/28 07:49:28;;;;;;;6.10;2.90;;;25.50;43.80;;;;;;5071432;28;20963;-77
2021/06/28 07:51:56;;;;;;;6.43;3.00;;;25.80;43.10;;;;;;5072620;28;20485;-78
2021/06/28 07:54:24;;;;;;;4.27;2.90;;;26.10;42.20;;;;;;5073898;28;20495;-77
2021/06/28 07:56:52;;;;;;;3.13;2.83;;;26.30;41.10;;;;;;5060981;28;20489;-79
2021/06/28 07:59:19;;;;;;;5.70;2.83;;;25.70;42.20;;;;;;5042018;28;20459;-77
2021/06/28 08:01:48;;;;;;;3.00;2.80;;;26.00;42.10;;;;;;5058488;28;20452;-77
2021/06/28 08:04:15;;;;;;;3.10;2.80;;;26.30;40.90;;;;;;5050058;28;20945;-77
2021/06/28 08:06:42;;;;;;;3.20;2.80;;;26.30;41.30;;;;;;5041385;28;20501;-79
2021/06/28 08:09:10;;;;;;;4.03;2.90;;;26.30;41.80;;;;;;5057370;28;20551;-79
2021/06/28 08:11:37;;;;;;;2.90;2.70;;;26.40;41.00;;;;;;5057153;28;20458;-77
2021/06/28 08:14:05;;;;;;;3.23;2.93;;;26.60;41.10;;;;;;5053652;28;20458;-78
2021/06/28 08:16:32;;;;;;;3.80;3.50;;;26.80;40.80;;;;;;5037615;28;20509;-78
2021/06/28 08:19:01;;;;;;;3.70;3.40;;;26.90;41.00;;;;;;5036968;28;20823;-77
2021/06/28 08:21:28;;;;;;;3.77;3.10;;;27.00;40.60;;;;;;5043269;28;20488;-77
2021/06/28 08:23:55;;;;;;;2.93;2.73;;;26.90;39.70;;;;;;5038002;28;20457;-77
2021/06/28 08:26:22;;;;;;;3.63;2.97;;;27.00;39.80;;;;;;5039962;28;20536;-77
2021/06/28 08:28:48;;;;;;;3.20;3.00;;;27.50;38.60;;;;;;5040837;28;20470;-77
2021/06/28 08:31:15;;;;;;;2.57;2.37;;;27.80;38.30;;;;;;5054567;28;20518;-77
2021/06/28 08:33:43;;;;;;;2.80;2.60;;;28.00;37.60;;;;;;5059250;28;21150;-77
2021/06/28 08:36:12;;;;;;;3.63;2.37;;;27.40;38.40;;;;;;5055611;28;20432;-77
2021/06/28 08:38:39;;;;;;;3.03;2.80;;;27.80;35.10;;;;;;5055797;28;20517;-78
2021/06/28 08:41:09;;;;;;;3.00;2.50;;;28.00;35.30;;;;;;5057061;28;20481;-78
2021/06/28 08:43:39;;;;;;;2.90;2.70;;;27.80;37.20;;;;;;5064648;28;21006;-76
2021/06/28 08:46:07;;;;;;;2.43;2.33;;;27.80;36.70;;;;;;5060335;28;20843;-77
2021/06/28 08:48:34;;;;;;;3.07;2.23;;;28.20;35.80;;;;;;5059293;28;20865;-78
2021/06/28 08:51:01;;;;;;;3.23;2.40;;;28.60;35.70;;;;;;5058489;28;20429;-78
2021/06/28 08:53:30;;;;;;;3.00;2.30;;;28.20;35.40;;;;;;5059194;28;20510;-78
2021/06/28 08:55:57;;;;;;;2.50;2.30;;;28.60;35.70;;;;;;5058802;28;20447;-78
2021/06/28 08:58:26;;;;;;;2.50;2.40;;;29.10;33.60;;;;;;5075359;28;20453;-78
2021/06/28 09:00:53;;;;;;;2.43;2.23;;;29.30;33.60;;;;;;5077567;28;20430;-77
2021/06/28 09:03:21;;;;;;;3.67;2.63;;;29.10;33.90;;;;;;5064203;28;20527;-77
2021/06/28 09:05:53;;;;;;;3.40;2.70;;;29.50;33.20;;;;;;5056690;28;20530;-77
2021/06/28 09:08:22;;;;;;;2.33;2.20;;;29.40;33.60;;;;;;5038671;28;20476;-76
2021/06/28 09:10:51;;;;;;;8.33;2.80;;;29.60;33.80;;;;;;5036410;28;20439;-77
2021/06/28 09:13:18;;;;;;;2.47;2.37;;;30.00;32.20;;;;;;5057558;28;20560;-75
2021/06/28 09:15:48;;;;;;;2.90;2.70;;;29.00;35.10;;;;;;5058289;28;20476;-78
2021/06/28 09:18:22;;;;;;;4.60;2.87;;;29.10;36.00;;;;;;5058426;28;20492;-78
2021/06/28 09:20:50;;;;;;;2.50;2.30;;;29.30;36.20;;;;;;5058180;28;20498;-78
2021/06/28 09:23:23;;;;;;;3.57;3.27;;;29.40;35.20;;;;;;5057422;28;20477;-79
2021/06/28 09:25:54;;;;;;;3.40;3.10;;;27.90;38.10;;;;;;5037601;28;20487;-77
2021/06/28 09:28:37;;;;;;;3.70;3.37;;;27.80;37.80;;;;;;5037664;28;20560;-76
2021/06/28 09:31:05;;;;;;;4.60;3.40;;;27.30;39.70;;;;;;5037027;28;20982;-76
2021/06/28 09:33:32;;;;;;;3.40;3.20;;;26.80;40.80;;;;;;5036998;28;20448;-76
2021/06/28 09:35:58;;;;;;;3.03;2.83;;;27.30;40.00;;;;;;5039083;28;20460;-77
2021/06/28 09:38:39;;;;;;;5.50;2.93;;;27.10;39.60;;;;;;5044503;28;20847;-76
2021/06/28 09:41:27;;;;;;;3.23;2.93;;;27.10;40.10;;;;;;5064161;28;20441;-76
2021/06/28 09:43:59;;;;;;;3.50;3.27;;;27.60;39.10;;;;;;5047908;28;20453;-77
2021/06/28 09:46:26;;;;;;;3.37;2.30;;;27.10;39.80;;;;;;5047664;28;20452;-78
2021/06/28 09:48:55;;;;;;;3.13;2.80;;;28.00;37.00;;;;;;5057880;28;20436;-80
2021/06/28 09:51:25;;;;;;;3.03;2.83;;;28.70;35.70;;;;;;5057984;28;20442;-79
2021/06/28 09:53:55;;;;;;;3.10;2.90;;;28.50;35.60;;;;;;5057627;28;20444;-78
2021/06/28 09:56:31;;;;;;;3.23;3.03;;;28.70;35.70;;;;;;5071673;28;20408;-77
2021/06/28 09:58:58;;;;;;;3.17;2.97;;;28.30;35.50;;;;;;5071759;28;20476;-78
2021/06/28 10:01:26;;;;;;;4.83;2.50;;;28.10;36.30;;;;;;5057612;28;20419;-79
2021/06/28 10:03:55;;;;;;;3.33;2.73;;;28.00;37.20;;;;;;5057409;28;20436;-76
2021/06/28 10:06:31;;;;;;;2.83;2.63;;;27.50;38.00;;;;;;5045534;28;20493;-76
2021/06/28 10:09:05;;;;;;;3.07;2.87;;;27.80;37.40;;;;;;5059856;28;20442;-77
2021/06/28 10:11:34;;;;;;;5.00;3.00;;;28.70;35.70;;;;;;5066421;28;20983;-76
2021/06/28 10:14:04;;;;;;;4.30;3.20;;;28.80;35.10;;;;;;5058817;28;20528;-75
2021/06/28 10:16:33;;;;;;;3.23;3.00;;;28.80;35.80;;;;;;5055210;28;20470;-76
2021/06/28 10:19:01;;;;;;;3.53;3.27;;;28.70;35.10;;;;;;5053612;28;20513;-77
2021/06/28 10:21:29;;;;;;;2.60;2.40;;;28.00;36.60;;;;;;5053591;28;20451;-76
2021/06/28 10:23:57;;;;;;;2.83;2.63;;;28.40;35.60;;;;;;5053122;28;20471;-77
2021/06/28 10:26:25;;;;;;;3.30;3.00;;;27.60;37.80;;;;;;5054496;28;20518;-76
2021/06/28 10:28:54;;;;;;;3.77;3.47;;;27.30;38.20;;;;;;5053691;28;20500;-77
2021/06/28 10:31:21;;;;;;;5.33;3.43;;;27.60;36.20;;;;;;5051208;28;20462;-76
2021/06/28 10:33:54;;;;;;;3.20;3.00;;;27.50;36.90;;;;;;5032829;28;20460;-76
2021/06/28 10:36:24;;;;;;;3.67;3.37;;;27.70;36.70;;;;;;5033653;28;20488;-76
2021/06/28 10:38:52;;;;;;;3.90;3.50;;;28.10;35.40;;;;;;5033567;28;20547;-76
2021/06/28 10:41:37;;;;;;;4.20;3.47;;;27.90;36.50;;;;;;5033162;28;20435;-76
2021/06/28 10:44:07;;;;;;;3.13;2.93;;;27.50;37.50;;;;;;5033277;28;20490;-76
2021/06/28 10:46:36;;;;;;;3.80;3.30;;;27.80;36.30;;;;;;5034726;28;20496;-77
2021/06/28 10:49:05;;;;;;;3.50;3.20;;;27.80;35.10;;;;;;5034713;28;20584;-77
2021/06/28 10:51:41;;;;;;;3.50;3.20;;;28.00;35.30;;;;;;5033902;28;20478;-76
2021/06/28 10:54:11;;;;;;;3.37;3.17;;;28.30;35.50;;;;;;5033713;28;20455;-77
2021/06/28 10:56:55;;;;;;;3.03;2.83;;;28.50;35.60;;;;;;5034941;28;20482;-77
2021/06/28 10:59:42;;;;;;;4.77;3.27;;;28.30;34.80;;;;;;5034065;28;20453;-76
2021/06/28 11:02:11;;;;;;;2.83;2.60;;;28.50;34.40;;;;;;5032252;28;20463;-77
2021/06/28 11:04:43;;;;;;;3.30;3.10;;;28.80;31.80;;;;;;5032723;28;20453;-77
2021/06/28 11:07:12;;;;;;;5.50;3.30;;;28.90;32.30;;;;;;5033474;28;20495;-77
2021/06/28 11:09:42;;;;;;;3.27;3.07;;;29.00;32.70;;;;;;5032798;28;20526;-76
2021/06/28 11:12:22;;;;;;;3.10;2.90;;;29.40;31.60;;;;;;5032447;28;20432;-77
2021/06/28 11:14:53;;;;;;;3.50;2.93;;;28.80;33.40;;;;;;5032843;28;20423;-79
2021/06/28 11:17:22;;;;;;;3.33;3.13;;;29.20;31.80;;;;;;5033280;28;20533;-79
2021/06/28 11:20:02;;;;;;;7.20;2.90;;;29.40;32.10;;;;;;5035605;28;20452;-78
2021/06/28 11:22:51;;;;;;;4.53;3.00;;;29.90;30.60;;;;;;5035472;28;20437;-77
2021/06/28 11:25:23;;;;;;;3.00;2.80;;;29.10;31.30;;;;;;5045571;28;20478;-78
2021/06/28 11:28:14;;;;;;;3.10;2.90;;;29.80;31.20;;;;;;5046495;28;20598;-76
2021/06/28 11:31:02;;;;;;;2.93;2.73;;;30.40;29.00;;;;;;5044637;28;20543;-77
2021/06/28 11:33:44;;;;;;;3.30;3.00;;;30.20;28.80;;;;;;5053362;28;20442;-77
2021/06/28 11:36:36;;;;;;;3.80;2.83;;;29.70;29.80;;;;;;5058269;28;20557;-77
2021/06/28 11:39:06;;;;;;;3.30;3.10;;;30.20;29.30;;;;;;5064949;28;20507;-77
2021/06/28 11:41:35;;;;;;;3.93;2.73;;;30.40;29.10;;;;;;5060224;28;20438;-78
2021/06/28 11:44:06;;;;;;;3.43;3.23;;;29.80;29.80;;;;;;5052184;28;20470;-78
2021/06/28 11:46:48;;;;;;;5.83;2.93;;;29.70;30.10;;;;;;5043969;28;20492;-77
2021/06/28 11:49:24;;;;;;;3.00;2.80;;;29.40;29.60;;;;;;5054268;28;20486;-78
2021/06/28 11:51:53;;;;;;;3.70;3.20;;;29.40;29.80;;;;;;5048060;28;20439;-78
2021/06/28 11:54:24;;;;;;;2.80;2.67;;;29.20;30.80;;;;;;5051745;28;20508;-75
2021/06/28 11:56:53;;;;;;;3.23;2.90;;;29.10;30.00;;;;;;5039081;28;20431;-76
2021/06/28 11:59:22;;;;;;;3.33;3.13;;;28.80;30.50;;;;;;5036091;28;20463;-75
2021/06/28 12:01:51;;;;;;;4.23;2.80;;;29.40;30.20;;;;;;5052461;28;20487;-75
2021/06/28 12:04:21;;;;;;;3.00;2.80;;;29.90;29.10;;;;;;5060805;28;20503;-75
2021/06/28 12:06:50;;;;;;;3.17;2.97;;;30.50;28.20;;;;;;5056478;28;20458;-75
2021/06/28 12:09:18;;;;;;;4.13;2.90;;;30.50;27.80;;;;;;5057778;28;20857;-75
2021/06/28 12:11:54;;;;;;;2.60;2.40;;;30.00;28.40;;;;;;5057280;28;20550;-77
2021/06/28 12:14:32;;;;;;;3.10;2.90;;;29.80;29.50;;;;;;5067039;28;20473;-77
2021/06/28 12:17:01;;;;;;;3.00;2.80;;;29.70;29.50;;;;;;5065495;28;20450;-75
2021/06/28 12:19:29;;;;;;;4.93;3.10;;;29.70;29.20;;;;;;5053515;28;20429;-75
2021/06/28 12:21:55;;;;;;;2.97;2.77;;;29.50;30.10;;;;;;5057336;28;20460;-83
2021/06/28 12:24:22;;;;;;;3.37;3.10;;;29.60;29.30;;;;;;5058699;28;20468;-75
2021/06/28 12:27:02;;;;;;;3.27;3.07;;;29.40;30.10;;;;;;5035667;28;20542;-75
2021/06/28 12:29:31;;;;;;;3.70;3.40;;;29.30;30.60;;;;;;5035677;28;20979;-76
2021/06/28 12:32:22;;;;;;;3.13;2.93;;;29.20;30.50;;;;;;5034022;28;20433;-74
2021/06/28 12:34:53;;;;;;;4.67;3.30;;;29.50;29.90;;;;;;5035512;28;20471;-75
2021/06/28 12:37:28;;;;;;;3.23;3.03;;;29.50;29.90;;;;;;5042151;28;20549;-77
2021/06/28 12:40:11;;;;;;;3.40;3.20;;;30.00;29.40;;;;;;5055686;28;20506;-76
2021/06/28 12:42:40;;;;;;;3.40;2.80;;;30.60;28.80;;;;;;5054932;28;20456;-78
2021/06/28 12:45:07;;;;;;;3.80;3.50;;;30.80;28.80;;;;;;5054951;28;20442;-77
2021/06/28 12:47:36;;;;;;;5.37;3.43;;;30.70;29.30;;;;;;5047869;28;20880;-77
2021/06/28 12:50:04;;;;;;;5.00;3.17;;;30.50;30.00;;;;;;5035270;28;20899;-78
2021/06/28 12:52:35;;;;;;;9.17;3.30;;;30.70;29.60;;;;;;5041045;28;20522;-78
2021/06/28 12:55:14;;;;;;;5.40;3.80;;;31.20;28.90;;;;;;5054782;28;20990;-79